LiveATC.Net - Listen to live air traffic control over the Internet!


ICAO: KFCM  IATA: FCM   Airport: Flying Cloud Airport
City: Minneapolis   State/Province: Minnesota
Country: United States   Continent: North America
KFCM METAR Weather: KFCM 222253Z 19012G19KT 10SM BKN043 OVC050 16/08 A2962 RMK AO2 SLP033 T01560078
KFCM Flight Activity (FlightAware)
KFCM Airport Info   (iFlightPlanner)
KFCM VFR Sectional Chart   (iFlightPlanner) 
KFCM IFR Low Chart   (iFlightPlanner) 

KFCM Tower
Feed Status: DOWN
Last heard on: 2019-05-21 15:40:02 (1 days 8 hours 17 minutes ago)
KFCM Tower Audio Archives
FacilityFrequency
Flying Cloud Tower119.150

NOTICE

Unauthorized use prohibited. See LiveATC.net Terms of Service


Find LiveATC Audio Streams


Airport/ARTCC Code

Frequency Search
(e.g., 124.400, 128.75)
Site-wide search
 


Browse LiveATC Feeds
Top 50 LiveATC Feeds
LiveATC Feed Map
Bad Weather Areas

LiveATC FAQ
Offer LiveATC feed
Contact LiveATC.net
Press Inquiries

LiveATC on iPhone
LiveATC on Android

Windows Phone
Windows 8/10

LiveATC Mobile
(Mobile browser)

ATC Audio Archives
Interesting Recordings

LiveATC Forums


Home Page
About LiveATC.net
Make a Donation
Terms of Use
Privacy Policy

Canadian Air Freqs

AIRMETs/SIGMETs

FAA Airport Status
Nat'l Airspace Status
Arrival Demand Charts


Server Software By:
Icecast.org
Liquidsoap